Time;durP1;ratioP1;P1;durP2;ratioP2;P2;SDS_P1;SDS_P2;PMS_P1;PMS_P2;Temp;Humidity;BMP_temperature;BMP_pressure;BME280_temperature;BME280_humidity;BME280_pressure;Samples;Min_cycle;Max_cycle;Signal;HPM_P1;HPM_P2
2022/10/06 00:00:18;;;;;;;5.15;1.50;;;14.90;65.60;;;;;;5016895;28;20478;-78
2022/10/06 00:02:45;;;;;;;3.10;1.60;;;14.80;65.80;;;;;;5016799;28;20037;-77
2022/10/06 00:05:11;;;;;;;2.60;1.40;;;14.80;65.80;;;;;;5016655;28;20025;-77
2022/10/06 00:07:37;;;;;;;6.05;1.75;;;14.80;66.00;;;;;;5016259;28;20017;-77
2022/10/06 00:10:04;;;;;;;2.63;1.20;;;14.80;65.70;;;;;;5017859;28;20037;-77
2022/10/06 00:12:48;;;;;;;3.63;1.23;;;14.80;65.80;;;;;;5018964;28;20156;-77
2022/10/06 00:15:20;;;;;;;3.80;1.50;;;14.80;65.80;;;;;;5016456;28;20061;-78
2022/10/06 00:17:45;;;;;;;3.67;1.65;;;14.80;66.10;;;;;;5016249;28;20489;-77
2022/10/06 00:20:11;;;;;;;2.53;1.30;;;14.70;66.30;;;;;;5016488;28;20034;-79
2022/10/06 00:22:44;;;;;;;5.43;1.52;;;14.70;66.70;;;;;;5032675;28;20025;-78
2022/10/06 00:25:14;;;;;;;5.88;1.92;;;14.70;66.60;;;;;;5034210;28;20117;-78
2022/10/06 00:27:41;;;;;;;4.43;1.65;;;14.60;66.70;;;;;;5016507;28;20390;-78
2022/10/06 00:30:12;;;;;;;2.83;1.70;;;14.60;67.00;;;;;;5016057;28;20030;-79
2022/10/06 00:33:04;;;;;;;2.95;1.60;;;14.50;67.20;;;;;;5016399;28;20040;-79
2022/10/06 00:35:33;;;;;;;3.30;1.50;;;14.40;67.60;;;;;;5033793;28;20096;-79
2022/10/06 00:38:02;;;;;;;3.05;1.70;;;14.40;67.80;;;;;;5016238;28;20021;-79
2022/10/06 00:40:29;;;;;;;4.95;1.70;;;14.40;68.00;;;;;;5016319;28;20036;-79
2022/10/06 00:42:58;;;;;;;6.32;1.70;;;14.30;68.10;;;;;;5018008;28;20052;-79
2022/10/06 00:45:40;;;;;;;4.85;1.85;;;14.30;68.40;;;;;;5016967;28;20025;-80
2022/10/06 00:48:23;;;;;;;4.40;1.63;;;14.20;68.80;;;;;;5015371;28;20026;-79
2022/10/06 00:50:52;;;;;;;7.10;1.85;;;14.30;68.80;;;;;;5015968;28;20474;-78
2022/10/06 00:53:20;;;;;;;6.55;1.88;;;14.30;69.10;;;;;;5033372;28;20030;-78
2022/10/06 00:55:47;;;;;;;5.70;1.60;;;14.20;69.00;;;;;;5015312;28;20056;-78
2022/10/06 00:58:13;;;;;;;4.57;1.70;;;14.20;69.20;;;;;;5015510;28;20470;-78
2022/10/06 01:00:41;;;;;;;5.97;2.20;;;14.20;69.30;;;;;;5015834;28;20500;-78
2022/10/06 01:03:20;;;;;;;3.45;1.90;;;14.10;69.40;;;;;;5015621;28;20033;-78
2022/10/06 01:05:49;;;;;;;6.35;2.47;;;14.10;69.40;;;;;;5015361;28;20482;-78
2022/10/06 01:08:15;;;;;;;4.75;1.88;;;14.00;69.60;;;;;;5015431;28;20076;-78
2022/10/06 01:10:41;;;;;;;5.60;2.15;;;14.00;69.90;;;;;;5015148;28;20033;-78
2022/10/06 01:13:09;;;;;;;6.40;2.08;;;14.00;70.20;;;;;;5015911;28;20037;-80
2022/10/06 01:15:43;;;;;;;8.32;2.28;;;13.90;70.30;;;;;;5015515;28;20060;-80
2022/10/06 01:18:12;;;;;;;4.50;2.20;;;13.90;70.90;;;;;;5015455;28;20135;-80
2022/10/06 01:20:43;;;;;;;7.57;3.03;;;13.80;71.10;;;;;;5015461;28;20025;-79
2022/10/06 01:23:09;;;;;;;4.35;2.05;;;13.70;71.70;;;;;;5015306;28;20028;-79
2022/10/06 01:25:35;;;;;;;8.00;2.40;;;13.60;71.80;;;;;;5015459;28;20029;-79
2022/10/06 01:28:05;;;;;;;4.15;2.13;;;13.60;71.90;;;;;;5015333;28;20057;-78
2022/10/06 01:30:49;;;;;;;5.47;2.25;;;13.60;71.70;;;;;;5015267;28;20075;-79
2022/10/06 01:33:16;;;;;;;6.20;2.60;;;13.50;71.90;;;;;;5015342;28;20025;-79
2022/10/06 01:35:46;;;;;;;5.00;2.20;;;13.50;72.10;;;;;;5015077;28;20036;-77
2022/10/06 01:38:12;;;;;;;7.93;2.08;;;13.50;72.40;;;;;;5015117;28;20159;-78
2022/10/06 01:40:37;;;;;;;4.85;2.47;;;13.50;72.40;;;;;;5015364;28;20480;-77
2022/10/06 01:43:03;;;;;;;5.72;2.38;;;13.40;72.50;;;;;;5015151;28;20021;-77
2022/10/06 01:45:28;;;;;;;2.97;1.95;;;13.40;72.90;;;;;;5015068;28;20501;-77
2022/10/06 01:47:54;;;;;;;6.50;2.80;;;13.40;72.70;;;;;;5014723;28;20120;-77
2022/10/06 01:50:20;;;;;;;8.75;3.70;;;13.40;72.70;;;;;;5015353;28;20478;-77
2022/10/06 01:52:45;;;;;;;8.57;3.85;;;13.30;73.20;;;;;;5015069;28;20018;-77
2022/10/06 01:55:11;;;;;;;8.73;4.50;;;13.30;73.10;;;;;;5015195;28;20457;-78
2022/10/06 01:57:41;;;;;;;9.40;4.30;;;13.30;73.40;;;;;;5015120;28;20026;-77
2022/10/06 02:00:07;;;;;;;9.18;3.92;;;13.30;73.30;;;;;;5017021;28;20029;-77
2022/10/06 02:02:33;;;;;;;5.78;3.28;;;13.20;73.40;;;;;;5018155;28;20387;-77
2022/10/06 02:04:58;;;;;;;7.05;4.15;;;13.30;73.50;;;;;;5018669;28;20025;-78
2022/10/06 02:07:24;;;;;;;8.50;3.10;;;13.30;73.40;;;;;;5018844;28;20029;-78
2022/10/06 02:09:50;;;;;;;8.77;3.45;;;13.30;73.30;;;;;;5019130;28;20072;-78
2022/10/06 02:12:16;;;;;;;11.05;3.90;;;13.30;73.40;;;;;;5019075;28;20029;-78
2022/10/06 02:14:42;;;;;;;10.60;4.40;;;13.20;73.70;;;;;;5018705;28;20474;-78
2022/10/06 02:17:08;;;;;;;12.90;5.60;;;13.10;73.90;;;;;;5018641;28;20100;-78
2022/10/06 02:19:34;;;;;;;17.27;7.30;;;13.20;73.90;;;;;;5035037;28;20026;-79
2022/10/06 02:22:00;;;;;;;15.05;7.13;;;13.10;74.30;;;;;;5018852;28;20473;-79
2022/10/06 02:24:27;;;;;;;27.80;10.20;;;13.10;74.30;;;;;;5018549;28;20116;-79
2022/10/06 02:26:52;;;;;;;30.73;10.63;;;13.10;74.30;;;;;;5018515;28;20032;-79
2022/10/06 02:29:19;;;;;;;25.40;11.02;;;13.00;74.30;;;;;;5018198;28;20025;-79
2022/10/06 02:31:45;;;;;;;25.55;9.52;;;13.00;74.40;;;;;;5018386;28;20091;-79
2022/10/06 02:34:11;;;;;;;17.27;8.18;;;13.00;74.50;;;;;;5034728;28;20508;-78
2022/10/06 02:36:36;;;;;;;18.63;7.60;;;12.90;74.90;;;;;;5018414;28;20616;-79
2022/10/06 02:39:04;;;;;;;10.20;5.03;;;12.90;75.00;;;;;;5018108;28;20038;-78
2022/10/06 02:41:32;;;;;;;10.25;3.97;;;12.90;75.00;;;;;;5018051;28;20037;-79
2022/10/06 02:43:58;;;;;;;7.65;3.13;;;12.90;74.90;;;;;;5018278;28;20021;-79
2022/10/06 02:46:24;;;;;;;5.82;2.53;;;13.00;74.70;;;;;;5018169;28;20017;-80
2022/10/06 02:48:52;;;;;;;5.38;2.33;;;13.00;74.80;;;;;;5018295;28;20032;-79
2022/10/06 02:51:19;;;;;;;3.17;2.10;;;13.00;74.90;;;;;;5018118;28;20025;-79
2022/10/06 02:53:49;;;;;;;7.78;2.22;;;13.00;74.70;;;;;;5017726;28;20367;-79
2022/10/06 02:56:19;;;;;;;7.22;2.50;;;12.90;74.90;;;;;;5017862;28;20072;-79
2022/10/06 02:58:46;;;;;;;10.23;2.10;;;12.80;74.90;;;;;;5018146;28;20022;-81
2022/10/06 03:01:18;;;;;;;7.10;2.28;;;12.90;75.10;;;;;;5018185;28;20064;-79
2022/10/06 03:03:45;;;;;;;5.45;2.03;;;12.90;75.10;;;;;;5018070;28;20036;-78
2022/10/06 03:06:22;;;;;;;6.13;2.70;;;12.80;75.10;;;;;;5018172;28;20112;-78
2022/10/06 03:08:57;;;;;;;5.85;1.98;;;12.70;75.60;;;;;;5017851;28;20420;-78
2022/10/06 03:11:27;;;;;;;3.72;2.30;;;12.70;75.80;;;;;;5017303;28;20473;-78
2022/10/06 03:13:54;;;;;;;7.75;2.67;;;12.60;75.90;;;;;;5017978;28;20026;-78
2022/10/06 03:16:32;;;;;;;7.00;2.58;;;12.60;76.00;;;;;;5017494;28;20061;-78
2022/10/06 03:18:59;;;;;;;7.47;2.83;;;12.60;76.10;;;;;;5017492;28;20036;-78
2022/10/06 03:21:28;;;;;;;5.35;2.15;;;12.60;76.40;;;;;;5017737;28;20064;-78
2022/10/06 03:23:56;;;;;;;6.32;2.70;;;12.60;76.30;;;;;;5017653;28;20087;-78
2022/10/06 03:26:34;;;;;;;4.80;2.40;;;12.60;76.40;;;;;;5016999;28;20092;-78
2022/10/06 03:29:00;;;;;;;8.85;2.78;;;12.50;76.40;;;;;;5017454;28;20022;-77
2022/10/06 03:31:26;;;;;;;5.43;2.55;;;12.60;76.30;;;;;;5017250;28;20067;-78
2022/10/06 03:33:56;;;;;;;6.82;2.95;;;12.60;76.30;;;;;;5017530;28;20034;-78
2022/10/06 03:36:23;;;;;;;5.28;2.47;;;12.60;76.40;;;;;;5016936;28;20041;-77
2022/10/06 03:38:50;;;;;;;4.50;2.53;;;12.60;76.40;;;;;;5017304;28;20533;-78
2022/10/06 03:41:18;;;;;;;10.00;2.45;;;12.60;76.50;;;;;;5017150;28;20025;-78
2022/10/06 03:43:46;;;;;;;7.55;3.35;;;12.60;76.40;;;;;;5017231;28;20033;-77
2022/10/06 03:46:13;;;;;;;4.68;2.80;;;12.60;76.40;;;;;;5017136;28;20017;-78
2022/10/06 03:48:39;;;;;;;4.32;2.35;;;12.50;76.50;;;;;;5016669;28;20021;-78
2022/10/06 03:51:10;;;;;;;7.53;2.45;;;12.50;76.40;;;;;;5016763;28;20496;-77
2022/10/06 03:53:36;;;;;;;5.53;2.30;;;12.60;76.30;;;;;;5016876;28;20060;-77
2022/10/06 03:56:10;;;;;;;6.32;2.75;;;12.50;76.90;;;;;;5016924;28;20064;-77
2022/10/06 03:58:40;;;;;;;4.85;2.50;;;12.40;76.80;;;;;;5016667;28;20021;-79
2022/10/06 04:01:14;;;;;;;5.03;2.45;;;12.40;77.00;;;;;;5016598;28;20539;-78
2022/10/06 04:03:40;;;;;;;4.75;2.65;;;12.40;77.20;;;;;;5016586;28;20026;-79
2022/10/06 04:06:10;;;;;;;6.50;2.40;;;12.50;77.00;;;;;;5016933;28;20033;-79
2022/10/06 04:08:37;;;;;;;7.38;2.83;;;12.40;76.90;;;;;;5016742;28;20071;-79
2022/10/06 04:11:08;;;;;;;3.30;2.15;;;12.40;77.10;;;;;;5016516;28;20025;-78
2022/10/06 04:13:34;;;;;;;3.70;2.45;;;12.40;77.30;;;;;;5016624;28;20041;-77
2022/10/06 04:16:16;;;;;;;6.35;2.45;;;12.50;77.40;;;;;;5015724;28;20402;-78
2022/10/06 04:18:44;;;;;;;12.13;2.92;;;12.40;77.20;;;;;;5016282;28;20445;-77
2022/10/06 04:21:10;;;;;;;8.95;2.65;;;12.40;77.30;;;;;;5016203;28;20029;-78
2022/10/06 04:23:37;;;;;;;3.97;2.28;;;12.40;77.20;;;;;;5016996;28;20021;-79
2022/10/06 04:26:08;;;;;;;4.38;2.20;;;12.40;77.40;;;;;;5017724;28;20026;-77
2022/10/06 04:28:35;;;;;;;8.20;2.63;;;12.30;77.50;;;;;;5016395;28;20029;-77
2022/10/06 04:31:02;;;;;;;5.65;2.83;;;12.40;78.90;;;;;;5015922;28;20422;-76
2022/10/06 04:33:28;;;;;;;7.07;2.30;;;12.40;78.30;;;;;;5016121;28;20041;-75
2022/10/06 04:35:58;;;;;;;5.68;2.67;;;12.30;78.00;;;;;;5016034;28;20052;-73
2022/10/06 04:38:24;;;;;;;10.15;2.88;;;12.40;78.20;;;;;;5016070;28;20049;-76
2022/10/06 04:40:50;;;;;;;10.70;2.67;;;12.40;77.40;;;;;;5015926;28;20034;-79
2022/10/06 04:43:16;;;;;;;24.38;4.10;;;12.40;77.60;;;;;;5015819;28;20034;-78
2022/10/06 04:45:42;;;;;;;13.85;2.85;;;12.50;81.10;;;;;;5012257;28;20029;-80
2022/10/06 04:48:07;;;;;;;8.13;2.90;;;12.70;80.70;;;;;;5029147;28;20018;-81
2022/10/06 04:50:33;;;;;;;10.10;2.80;;;12.90;78.50;;;;;;5013476;28;20041;-77
2022/10/06 04:52:59;;;;;;;6.97;2.80;;;12.90;77.20;;;;;;5029065;28;20018;-78
2022/10/06 04:55:25;;;;;;;6.70;3.35;;;12.90;76.60;;;;;;5029505;28;20037;-76
2022/10/06 04:57:50;;;;;;;9.38;3.67;;;12.90;76.40;;;;;;5029953;28;20049;-78
2022/10/06 05:00:22;;;;;;;7.75;3.65;;;12.80;76.00;;;;;;5028801;28;20088;-78
2022/10/06 05:02:48;;;;;;;8.32;3.55;;;12.70;76.40;;;;;;5028640;28;20022;-76
2022/10/06 05:05:15;;;;;;;11.07;4.30;;;12.60;76.60;;;;;;5028542;28;20496;-77
2022/10/06 05:07:44;;;;;;;10.77;4.07;;;12.60;76.70;;;;;;5028852;28;20117;-80
2022/10/06 05:10:10;;;;;;;9.52;4.15;;;12.60;76.80;;;;;;5028573;28;20072;-81
2022/10/06 05:12:36;;;;;;;12.23;4.13;;;12.50;77.30;;;;;;5027923;28;20059;-79
2022/10/06 05:15:02;;;;;;;9.55;4.22;;;12.40;77.30;;;;;;5028420;28;20466;-80
2022/10/06 05:17:28;;;;;;;8.48;4.05;;;12.40;77.60;;;;;;5013210;28;20561;-80
2022/10/06 05:19:54;;;;;;;10.15;4.30;;;12.40;77.60;;;;;;5028527;28;20168;-79
2022/10/06 05:22:20;;;;;;;11.45;3.90;;;12.30;78.50;;;;;;5028369;28;20065;-79
2022/10/06 05:24:46;;;;;;;9.95;4.03;;;12.30;77.70;;;;;;5028288;28;20049;-80
2022/10/06 05:27:12;;;;;;;6.05;3.08;;;12.20;78.30;;;;;;5028361;28;20030;-77
2022/10/06 05:29:39;;;;;;;10.63;3.15;;;12.10;78.70;;;;;;5028321;28;20141;-80
2022/10/06 05:32:04;;;;;;;11.48;3.35;;;12.00;79.20;;;;;;5012141;28;20351;-80
2022/10/06 05:34:30;;;;;;;11.15;3.05;;;12.00;79.70;;;;;;5027831;28;20029;-80
2022/10/06 05:36:56;;;;;;;8.55;3.20;;;12.00;79.80;;;;;;5028003;28;20022;-80
2022/10/06 05:39:22;;;;;;;9.55;3.67;;;12.00;80.10;;;;;;5027698;28;20026;-80
2022/10/06 05:41:48;;;;;;;8.30;3.90;;;12.00;80.10;;;;;;5011783;28;20390;-80
2022/10/06 05:44:14;;;;;;;9.18;3.00;;;12.00;80.10;;;;;;5028431;28;20105;-81
2022/10/06 05:46:43;;;;;;;6.90;3.08;;;12.00;80.40;;;;;;5028196;28;20506;-80
2022/10/06 05:49:11;;;;;;;14.60;3.30;;;12.10;80.50;;;;;;5028046;28;20080;-80
2022/10/06 05:51:38;;;;;;;7.03;2.95;;;12.10;80.40;;;;;;5028068;28;20104;-80
2022/10/06 05:54:05;;;;;;;7.70;2.83;;;12.10;80.20;;;;;;5027952;28;20383;-80
2022/10/06 05:56:34;;;;;;;7.13;3.15;;;12.10;80.30;;;;;;5027961;28;20038;-80
2022/10/06 05:59:01;;;;;;;9.93;3.45;;;12.20;80.40;;;;;;5028188;28;20033;-80
2022/10/06 06:01:30;;;;;;;12.30;3.72;;;12.10;80.20;;;;;;5026862;28;20084;-80
2022/10/06 06:04:01;;;;;;;5.80;2.65;;;12.20;80.00;;;;;;5027986;28;20026;-81
2022/10/06 06:06:37;;;;;;;8.07;4.18;;;12.30;79.90;;;;;;5027628;28;20033;-80
2022/10/06 06:09:10;;;;;;;11.00;4.78;;;12.30;79.40;;;;;;5016298;28;20022;-80
2022/10/06 06:11:39;;;;;;;11.20;5.90;;;12.40;78.90;;;;;;5012922;28;20030;-80
2022/10/06 06:14:07;;;;;;;11.82;4.80;;;12.40;78.80;;;;;;5011011;28;20511;-81
2022/10/06 06:16:32;;;;;;;7.63;4.18;;;12.40;79.10;;;;;;5027568;28;20058;-80
2022/10/06 06:19:00;;;;;;;10.15;4.15;;;12.50;79.00;;;;;;5011495;28;20470;-79
2022/10/06 06:21:27;;;;;;;16.80;4.85;;;12.50;79.10;;;;;;5027773;28;20478;-79
2022/10/06 06:23:54;;;;;;;8.07;4.35;;;12.60;79.60;;;;;;5011866;28;20026;-76
2022/10/06 06:26:25;;;;;;;11.75;4.25;;;12.50;79.80;;;;;;5027575;28;20383;-77
2022/10/06 06:28:55;;;;;;;8.98;3.83;;;12.60;79.60;;;;;;5012511;28;20026;-76
2022/10/06 06:31:25;;;;;;;9.95;4.30;;;12.60;79.50;;;;;;5027644;28;20077;-77
2022/10/06 06:33:53;;;;;;;12.00;4.15;;;12.60;79.60;;;;;;5026968;28;20510;-77
2022/10/06 06:36:34;;;;;;;7.53;3.92;;;12.60;79.40;;;;;;5029604;28;20038;-75
2022/10/06 06:39:02;;;;;;;6.57;3.78;;;12.70;79.50;;;;;;5032508;28;20085;-80
2022/10/06 06:41:31;;;;;;;9.32;3.78;;;12.80;79.20;;;;;;5029288;28;20022;-77
2022/10/06 06:43:59;;;;;;;8.85;3.90;;;13.00;79.00;;;;;;5027498;28;20088;-80
2022/10/06 06:46:30;;;;;;;7.47;3.72;;;13.10;78.70;;;;;;5030005;28;20026;-80
2022/10/06 06:48:57;;;;;;;7.85;3.95;;;13.20;78.30;;;;;;5031370;28;20363;-80
2022/10/06 06:51:23;;;;;;;11.10;4.25;;;13.30;77.70;;;;;;5031178;28;20025;-79
2022/10/06 06:53:50;;;;;;;7.93;3.70;;;13.30;78.10;;;;;;5031112;28;20026;-77
2022/10/06 06:56:18;;;;;;;8.82;4.03;;;13.50;78.00;;;;;;5030613;28;20516;-78
2022/10/06 06:58:48;;;;;;;9.10;4.38;;;13.50;77.80;;;;;;5014379;28;20022;-77
2022/10/06 07:01:16;;;;;;;8.90;3.70;;;13.70;77.50;;;;;;5030870;28;20053;-77
2022/10/06 07:03:52;;;;;;;7.28;3.08;;;13.80;77.10;;;;;;5014397;28;20018;-77
2022/10/06 07:06:18;;;;;;;4.88;2.92;;;13.90;77.00;;;;;;5029075;28;20070;-77
2022/10/06 07:08:45;;;;;;;7.25;3.20;;;14.00;76.70;;;;;;5030734;28;20100;-76
2022/10/06 07:11:14;;;;;;;7.72;3.70;;;14.10;76.60;;;;;;5030548;28;20038;-78
2022/10/06 07:13:41;;;;;;;7.85;3.60;;;14.20;76.30;;;;;;5030597;28;20339;-78
2022/10/06 07:27:09;;;;;;;8.90;3.80;;;14.80;74.80;;;;;;5015352;28;20036;-77
2022/10/06 07:29:34;;;;;;;14.25;5.32;;;15.00;74.70;;;;;;5029946;28;20022;-77
2022/10/06 07:32:00;;;;;;;11.30;5.40;;;15.00;74.50;;;;;;5029843;28;20041;-77
2022/10/06 07:34:29;;;;;;;13.35;5.93;;;15.10;74.70;;;;;;5014964;28;20028;-75
2022/10/06 07:36:55;;;;;;;8.23;5.18;;;15.20;74.60;;;;;;5030283;28;20108;-77
2022/10/06 07:39:21;;;;;;;10.05;5.65;;;15.40;74.50;;;;;;5030415;28;20026;-77
2022/10/06 07:41:46;;;;;;;9.75;4.38;;;15.60;74.50;;;;;;5030360;28;20080;-76
2022/10/06 07:44:12;;;;;;;6.03;3.60;;;15.80;74.00;;;;;;5030221;28;20125;-76
2022/10/06 07:46:37;;;;;;;12.32;4.50;;;15.90;73.60;;;;;;5030618;28;20463;-76
2022/10/06 07:49:04;;;;;;;7.28;3.95;;;15.90;73.20;;;;;;5017217;28;20026;-77
2022/10/06 07:51:29;;;;;;;11.30;4.50;;;16.00;73.00;;;;;;5036847;28;20113;-77
2022/10/06 07:53:55;;;;;;;8.75;4.30;;;16.10;73.00;;;;;;5031445;28;20083;-77
2022/10/06 07:56:20;;;;;;;8.32;4.15;;;16.10;72.80;;;;;;5030528;28;20042;-77
2022/10/06 07:58:49;;;;;;;12.32;4.90;;;16.00;72.50;;;;;;5029446;28;20033;-77
2022/10/06 08:01:17;;;;;;;11.43;4.68;;;15.90;72.70;;;;;;5029385;28;20037;-77
2022/10/06 08:03:44;;;;;;;10.20;4.50;;;15.90;72.90;;;;;;5029837;28;20380;-77
2022/10/06 08:06:14;;;;;;;10.15;4.53;;;15.80;73.30;;;;;;5013490;28;20112;-77
2022/10/06 08:08:41;;;;;;;7.47;4.25;;;15.80;73.40;;;;;;5029809;28;20049;-77
2022/10/06 08:11:07;;;;;;;10.10;3.97;;;15.70;73.30;;;;;;5029679;28;20120;-78
2022/10/06 08:13:42;;;;;;;7.80;3.67;;;15.70;73.50;;;;;;5029124;28;20022;-78
2022/10/06 08:16:14;;;;;;;8.87;4.33;;;15.80;73.40;;;;;;5029342;28;20073;-77
2022/10/06 08:18:42;;;;;;;8.15;3.83;;;15.90;73.50;;;;;;5028981;28;20021;-78
2022/10/06 08:21:12;;;;;;;11.38;4.13;;;16.00;73.30;;;;;;5029015;28;20451;-78
2022/10/06 08:23:43;;;;;;;9.70;3.60;;;16.10;73.50;;;;;;5028916;28;20112;-78
2022/10/06 08:26:12;;;;;;;5.93;3.65;;;16.20;73.50;;;;;;5014336;28;20083;-78
2022/10/06 08:28:41;;;;;;;12.32;4.15;;;16.30;73.80;;;;;;5029367;28;20490;-77
2022/10/06 08:31:10;;;;;;;14.98;4.22;;;16.40;73.30;;;;;;5029015;28;20056;-78
2022/10/06 08:33:41;;;;;;;9.85;3.80;;;16.40;73.50;;;;;;5028919;28;20022;-77
2022/10/06 08:36:09;;;;;;;9.52;3.53;;;16.50;73.40;;;;;;5028991;28;20498;-77
2022/10/06 08:38:36;;;;;;;8.30;3.28;;;16.60;72.80;;;;;;5012440;28;20473;-77
2022/10/06 08:41:15;;;;;;;17.33;4.00;;;16.50;72.50;;;;;;5029247;28;20375;-78
2022/10/06 08:43:40;;;;;;;8.63;3.03;;;16.40;73.00;;;;;;5012669;28;20075;-77
2022/10/06 08:46:06;;;;;;;5.78;3.67;;;16.30;73.80;;;;;;5028288;28;20092;-77
2022/10/06 08:48:37;;;;;;;9.25;3.50;;;16.20;74.20;;;;;;5028607;28;20026;-78
2022/10/06 08:51:28;;;;;;;7.30;3.83;;;16.30;74.40;;;;;;5028444;28;20052;-77
2022/10/06 08:54:13;;;;;;;9.13;3.90;;;16.30;74.30;;;;;;5011677;28;20084;-77
2022/10/06 08:56:53;;;;;;;;;;;16.20;75.10;;;;;;5028865;28;20034;-77
2022/10/06 08:59:20;;;;;;;10.50;3.40;;;16.20;75.20;;;;;;5012009;28;19955;-80
2022/10/06 09:01:48;;;;;;;7.15;3.78;;;16.30;75.30;;;;;;5028332;28;20026;-77
2022/10/06 09:04:21;;;;;;;10.48;3.80;;;16.40;75.00;;;;;;5028369;28;20034;-77
2022/10/06 09:06:58;;;;;;;8.40;3.40;;;16.70;74.10;;;;;;5012925;28;20084;-77
2022/10/06 09:09:57;;;;;;;9.85;3.42;;;16.90;73.50;;;;;;5028053;28;20022;-77
2022/10/06 09:12:35;;;;;;;6.40;3.38;;;17.20;72.40;;;;;;5011792;28;20072;-77
2022/10/06 09:15:32;;;;;;;10.18;3.78;;;17.40;71.60;;;;;;5028356;28;20141;-78
2022/10/06 09:18:20;;;;;;;4.85;3.05;;;17.40;71.50;;;;;;5027887;28;20061;-77
2022/10/06 09:20:53;;;;;;;5.20;2.88;;;17.40;71.90;;;;;;5012121;28;20482;-78
2022/10/06 09:24:04;;;;;;;9.23;3.60;;;17.40;71.80;;;;;;5028345;28;20072;-78
2022/10/06 09:26:09;;;;;;;;;;;17.40;71.80;;;;;;5005888;28;20482;-77
2022/10/06 09:28:36;;;;;;;9.05;3.40;;;17.30;71.60;;;;;;5011274;28;19963;-78
2022/10/06 09:31:02;;;;;;;8.10;3.67;;;17.20;72.00;;;;;;5011661;28;20459;-77
2022/10/06 09:33:38;;;;;;;13.18;4.07;;;16.90;73.00;;;;;;5011809;28;20026;-78
2022/10/06 09:36:11;;;;;;;9.93;4.35;;;16.80;73.80;;;;;;5027874;28;20029;-77
2022/10/06 09:38:52;;;;;;;7.07;3.33;;;16.50;75.00;;;;;;5028091;28;20122;-77
2022/10/06 09:41:23;;;;;;;9.38;3.63;;;16.50;75.20;;;;;;5028123;28;20036;-79
2022/10/06 09:44:16;;;;;;;11.48;3.72;;;16.40;75.60;;;;;;5013086;28;20084;-80
2022/10/06 09:46:42;;;;;;;10.10;4.63;;;16.30;76.10;;;;;;5026988;28;20509;-80
2022/10/06 09:49:16;;;;;;;9.57;4.68;;;16.20;76.40;;;;;;5027718;28;20042;-80
2022/10/06 09:52:01;;;;;;;10.65;4.47;;;16.20;76.70;;;;;;5027869;28;20124;-81
2022/10/06 09:54:33;;;;;;;11.98;4.43;;;16.20;77.60;;;;;;5013111;28;20401;-80
2022/10/06 09:57:13;;;;;;;11.40;4.32;;;16.20;76.70;;;;;;5027813;28;20502;-80
2022/10/06 09:59:44;;;;;;;8.00;4.00;;;16.20;76.80;;;;;;5011144;28;20088;-79
2022/10/06 10:02:38;;;;;;;7.65;3.58;;;16.20;76.90;;;;;;5027323;28;20498;-79
2022/10/06 10:05:16;;;;;;;8.45;3.28;;;16.20;77.60;;;;;;5027026;28;20054;-79
2022/10/06 10:07:42;;;;;;;6.93;3.67;;;16.20;76.70;;;;;;5010553;28;20045;-78
2022/10/06 10:10:24;;;;;;;11.20;3.35;;;16.20;76.30;;;;;;5026427;28;20474;-78
2022/10/06 10:12:54;;;;;;;6.72;3.00;;;16.20;75.90;;;;;;5026942;28;20030;-79
2022/10/06 10:15:20;;;;;;;9.80;3.47;;;16.10;75.90;;;;;;5010419;28;20030;-82
2022/10/06 10:17:56;;;;;;;7.05;3.28;;;16.20;75.70;;;;;;5011161;28;20060;-77
2022/10/06 10:20:33;;;;;;;9.80;3.65;;;16.20;75.50;;;;;;5027685;28;20022;-77
2022/10/06 10:23:07;;;;;;;8.02;3.28;;;16.20;75.30;;;;;;5030657;28;20340;-77
2022/10/06 10:25:54;;;;;;;5.38;2.72;;;16.20;75.30;;;;;;5014181;28;20050;-77
2022/10/06 10:28:45;;;;;;;5.45;2.42;;;16.20;75.20;;;;;;5014328;28;20513;-76
2022/10/06 10:31:32;;;;;;;7.40;2.03;;;16.20;73.90;;;;;;5031085;28;20540;-76
2022/10/06 10:34:37;;;;;;;7.38;1.70;;;16.10;73.10;;;;;;5014220;28;20034;-76
2022/10/06 10:37:13;;;;;;;7.45;1.92;;;16.10;72.50;;;;;;5013659;28;20042;-76
2022/10/06 10:39:47;;;;;;;5.40;2.20;;;16.10;72.80;;;;;;5031073;28;20056;-76
2022/10/06 10:42:21;;;;;;;6.30;1.98;;;16.00;73.00;;;;;;5030787;28;20022;-79
2022/10/06 10:44:53;;;;;;;6.47;2.20;;;16.00;73.20;;;;;;5030760;28;20029;-77
2022/10/06 10:47:36;;;;;;;6.63;2.85;;;16.00;73.50;;;;;;5030629;28;20065;-76
2022/10/06 10:50:33;;;;;;;9.52;2.67;;;15.90;73.50;;;;;;5030745;28;20108;-77
2022/10/06 10:53:09;;;;;;;5.28;2.22;;;15.90;73.50;;;;;;5013835;28;20030;-76
2022/10/06 10:55:44;;;;;;;5.65;2.10;;;16.10;73.60;;;;;;5030564;28;20037;-76
2022/10/06 10:58:28;;;;;;;11.65;4.18;;;16.30;73.50;;;;;;5030066;28;20034;-77
2022/10/06 11:01:11;;;;;;;10.30;2.83;;;16.50;73.00;;;;;;5014924;28;20105;-78
2022/10/06 11:03:37;;;;;;;9.27;2.85;;;16.70;72.40;;;;;;5015382;28;20061;-78
2022/10/06 11:06:35;;;;;;;10.77;2.95;;;16.80;71.60;;;;;;5030127;28;20030;-77
2022/10/06 11:09:14;;;;;;;5.28;2.10;;;17.00;71.20;;;;;;5013322;28;20098;-77
2022/10/06 11:12:02;;;;;;;11.30;2.78;;;17.20;70.30;;;;;;5030533;28;20026;-78
2022/10/06 11:14:53;;;;;;;6.60;2.25;;;17.40;69.40;;;;;;5030141;28;20033;-78
2022/10/06 11:17:21;;;;;;;11.30;2.53;;;17.70;68.70;;;;;;5013813;28;20088;-79
2022/10/06 11:20:18;;;;;;;9.52;1.98;;;18.00;67.10;;;;;;5013735;28;20033;-78
2022/10/06 11:23:23;;;;;;;5.13;1.95;;;18.20;65.10;;;;;;5014089;28;20026;-78
2022/10/06 11:26:16;;;;;;;10.32;2.15;;;18.60;64.10;;;;;;5007574;28;20405;-78
2022/10/06 11:29:03;;;;;;;7.45;3.00;;;19.00;62.10;;;;;;5013762;28;20026;-78
2022/10/06 11:31:50;;;;;;;11.70;2.42;;;19.10;61.70;;;;;;5013409;28;20018;-78
2022/10/06 11:34:15;;;;;;;9.45;2.88;;;19.20;61.60;;;;;;5029731;28;20045;-78
2022/10/06 11:37:03;;;;;;;9.95;3.30;;;19.40;61.30;;;;;;5030383;28;20030;-78
2022/10/06 11:40:10;;;;;;;9.48;3.03;;;19.60;61.00;;;;;;5015048;28;20093;-79
2022/10/06 11:42:48;;;;;;;6.55;3.25;;;19.80;60.60;;;;;;5013097;28;20163;-78
2022/10/06 11:45:20;;;;;;;6.75;3.42;;;20.10;60.80;;;;;;5014485;28;20030;-78
2022/10/06 11:47:55;;;;;;;10.43;3.88;;;20.60;60.20;;;;;;5013392;28;20441;-78
2022/10/06 11:50:33;;;;;;;12.20;3.63;;;21.20;58.70;;;;;;5013618;28;20030;-76
2022/10/06 11:52:59;;;;;;;13.88;4.10;;;21.60;56.80;;;;;;5029629;28;20265;-76
2022/10/06 11:55:27;;;;;;;6.22;3.33;;;21.80;56.10;;;;;;5029703;28;20034;-77
2022/10/06 11:58:13;;;;;;;12.75;3.50;;;22.20;55.20;;;;;;5029866;28;20018;-77
2022/10/06 12:00:40;;;;;;;;;;;22.40;53.70;;;;;;5030540;28;20057;-77
2022/10/06 12:03:27;;;;;;;11.60;3.53;;;22.30;53.50;;;;;;5012833;28;19906;-77
2022/10/06 12:05:53;;;;;;;16.10;3.67;;;22.30;53.70;;;;;;5013134;28;20030;-78
2022/10/06 12:08:34;;;;;;;12.30;4.15;;;22.30;53.40;;;;;;5029380;28;20407;-78
2022/10/06 12:11:00;;;;;;;12.57;5.05;;;22.30;53.20;;;;;;5029470;28;20029;-77
2022/10/06 12:13:42;;;;;;;10.60;3.65;;;22.50;53.10;;;;;;5012820;28;20022;-77
2022/10/06 12:16:34;;;;;;;12.00;3.90;;;22.40;54.20;;;;;;5029722;28;20156;-76
2022/10/06 12:19:26;;;;;;;9.68;3.88;;;22.70;53.00;;;;;;5040150;28;20061;-77
2022/10/06 12:22:21;;;;;;;8.23;3.70;;;23.20;50.40;;;;;;5054630;28;20078;-78
2022/10/06 12:25:02;;;;;;;11.07;3.83;;;23.40;50.20;;;;;;5011327;28;20038;-78
2022/10/06 12:27:52;;;;;;;11.68;3.63;;;23.80;48.90;;;;;;5012524;28;20101;-78
2022/10/06 12:30:26;;;;;;;6.10;2.95;;;23.60;48.30;;;;;;5012573;28;20124;-78
2022/10/06 12:32:57;;;;;;;8.77;3.08;;;23.40;48.80;;;;;;5029049;28;20034;-78
2022/10/06 12:35:38;;;;;;;9.32;4.55;;;23.30;48.90;;;;;;5012532;28;20541;-78
2022/10/06 12:38:30;;;;;;;9.18;2.58;;;23.60;48.10;;;;;;5028230;28;20033;-78
2022/10/06 12:40:56;;;;;;;8.25;2.70;;;24.20;46.40;;;;;;4994300;28;20590;-78
2022/10/06 12:43:26;;;;;;;5.85;2.65;;;24.60;47.10;;;;;;5028377;28;20064;-78
2022/10/06 12:46:12;;;;;;;10.20;2.97;;;25.10;44.00;;;;;;5012045;28;20076;-79
2022/10/06 12:49:02;;;;;;;;;;;25.60;42.10;;;;;;5012786;28;20390;-78
2022/10/06 12:51:29;;;;;;;7.28;3.13;;;26.00;41.20;;;;;;5012109;28;20297;-78
2022/10/06 12:54:18;;;;;;;8.73;3.13;;;26.30;39.40;;;;;;5012407;28;20024;-79
2022/10/06 12:57:19;;;;;;;8.52;2.92;;;26.40;39.20;;;;;;5011728;28;20133;-79
2022/10/06 12:59:45;;;;;;;8.73;2.60;;;25.50;40.30;;;;;;5007623;28;20041;-78
2022/10/06 13:02:23;;;;;;;6.22;2.72;;;25.10;41.80;;;;;;5028084;28;20022;-77
2022/10/06 13:04:58;;;;;;;6.22;2.50;;;25.30;42.50;;;;;;5028488;28;20026;-76
2022/10/06 13:07:27;;;;;;;6.00;2.70;;;25.30;40.80;;;;;;5028392;28;20061;-77
2022/10/06 13:10:09;;;;;;;4.20;2.05;;;25.00;41.20;;;;;;5028628;28;20401;-76
2022/10/06 13:12:37;;;;;;;5.72;2.00;;;24.80;41.80;;;;;;5028504;28;20025;-79
2022/10/06 13:15:20;;;;;;;5.82;2.25;;;24.90;42.20;;;;;;5028119;28;20026;-77
2022/10/06 13:17:52;;;;;;;7.50;2.50;;;25.30;41.10;;;;;;5011767;28;20052;-77
2022/10/06 13:20:35;;;;;;;3.65;2.33;;;25.20;41.20;;;;;;5011962;28;20084;-77